EST,Max TemperatureF,Mean TemperatureF,Min TemperatureF,Max Dew PointF,MeanDew PointF,Min DewpointF,Max Humidity, Mean Humidity, Min Humidity, Max Sea Level PressureIn, Mean Sea Level PressureIn, Min Sea Level PressureIn, Max VisibilityMiles, Mean VisibilityMiles, Min VisibilityMiles, Max Wind SpeedMPH, Mean Wind SpeedMPH, Max Gust SpeedMPH,PrecipitationIn, CloudCover, Events, WindDirDegrees
2013-2-1,40,31,21,24,10,0,69,47,24,30.42,30.13,29.83,10,10,10,33,14,43,T,2,,295
2013-2-2,38,28,17,23,12,4,73,51,29,30.42,30.27,30.03,10,10,9,20,5,25,T,6,Snow,196
2013-2-3,44,37,29,27,23,16,85,63,40,29.99,29.93,29.85,10,10,9,21,6,28,T,6,Snow,281
2013-2-4,43,33,22,24,17,14,68,52,36,30.16,30.05,29.96,10,10,10,16,7,20,0.00,6,,209
2013-2-5,60,51,41,34,29,24,57,47,36,29.95,29.91,29.85,10,10,10,17,9,23,0.00,7,,232
2013-2-6,57,44,31,33,30,27,89,60,30,30.36,30.15,29.95,10,10,8,14,5,16,0.00,1,,36
2013-2-7,47,39,31,37,29,25,85,67,49,30.44,30.33,30.15,10,10,5,13,6,17,0.15,7,Rain,60
2013-2-8,50,44,38,41,37,24,100,75,49,30.14,29.88,29.76,10,8,3,24,13,33,1.01,7,Rain,336
2013-2-9,50,41,31,24,18,14,61,44,26,30.40,30.21,29.97,10,10,10,22,10,28,0.00,0,,342
2013-2-10,49,37,24,30,20,14,74,53,31,30.53,30.42,30.28,10,10,10,13,5,16,0.00,5,,127
2013-2-11,63,52,40,56,48,32,100,79,57,30.26,30.00,29.83,10,7,2,24,13,30,0.05,8,Rain,202
2013-2-12,61,50,39,44,29,22,70,47,23,30.03,29.96,29.87,10,10,10,16,7,22,0.00,7,,254
2013-2-13,49,44,38,43,38,32,100,75,50,29.93,29.75,29.64,10,6,1,15,6,21,0.12,8,Rain,354
2013-2-14,52,41,29,36,32,28,100,72,44,30.07,29.98,29.80,10,7,1,15,4,18,0.00,3,,245
2013-2-15,63,47,31,35,30,21,96,58,20,30.09,30.01,29.92,10,10,8,20,6,31,T,2,,217
2013-2-16,43,37,31,35,32,21,96,80,63,30.02,29.91,29.83,10,5,0,17,9,21,0.18,8,Fog-Rain-Snow,12
2013-2-17,35,30,25,17,8,0,69,47,25,30.26,30.04,29.88,10,10,10,29,15,35,0.00,2,,301
2013-2-18,48,33,17,20,10,3,62,41,19,30.43,30.33,30.25,10,10,10,13,6,16,0.00,2,,221
2013-2-19,51,42,33,47,36,21,93,71,48,30.23,29.97,29.79,10,9,2,18,11,25,0.10,6,Rain,208
2013-2-20,48,39,30,32,17,11,79,51,23,30.17,30.03,29.89,10,10,10,21,9,26,0.00,2,,293
2013-2-21,46,35,24,18,15,12,60,46,31,30.32,30.22,30.16,10,10,10,16,7,22,0.00,4,,352
2013-2-22,40,36,32,35,25,16,82,65,47,30.39,30.32,30.22,10,10,2,10,4,13,0.07,8,Rain,39
2013-2-23,43,40,36,41,38,35,100,95,89,30.17,29.97,29.83,7,3,0,12,6,16,0.18,8,Fog-Rain,340
2013-2-24,58,47,35,43,38,21,100,72,43,30.13,29.90,29.80,10,7,1,25,7,33,0.01,5,Rain,332
2013-2-25,46,37,27,25,21,17,72,55,37,30.25,30.20,30.14,10,10,10,13,4,18,0.00,5,,25
2013-2-26,54,42,29,52,41,25,100,85,69,30.23,29.88,29.58,10,6,0,28,8,35,0.73,8,Fog-Rain,77
2013-2-27,60,49,38,52,42,32,100,70,40,29.73,29.65,29.55,10,8,0,20,8,28,T,5,Fog,250
2013-2-28,50,44,38,37,29,22,79,57,34,29.79,29.71,29.65,10,10,10,23,10,29,T,6,,280